sensor_id;sensor_type;location;lat;lon;timestamp;pressure;altitude;pressure_sealevel;temperature;humidity
54122;BME280;40029;58.708;50.190;2022-09-29T00:02:28;100216.69;;;4.96;34.88
54122;BME280;40029;58.708;50.190;2022-09-29T00:04:59;100207.25;;;4.91;34.29
54122;BME280;40029;58.708;50.190;2022-09-29T00:07:30;100203.84;;;4.87;34.75
54122;BME280;40029;58.708;50.190;2022-09-29T00:10:02;100217.56;;;4.95;34.90
54122;BME280;40029;58.708;50.190;2022-09-29T00:12:34;100171.28;;;4.72;34.45
54122;BME280;40029;58.708;50.190;2022-09-29T00:15:05;100213.28;;;4.91;34.65
54122;BME280;40029;58.708;50.190;2022-09-29T00:17:36;100193.63;;;4.73;35.16
54122;BME280;40029;58.708;50.190;2022-09-29T00:20:07;100193.63;;;4.73;34.92
54122;BME280;40029;58.708;50.190;2022-09-29T00:22:39;100217.75;;;4.72;35.15
54122;BME280;40029;58.708;50.190;2022-09-29T00:25:10;100209.06;;;4.80;35.31
54122;BME280;40029;58.708;50.190;2022-09-29T00:27:42;100204.69;;;4.91;35.15
54122;BME280;40029;58.708;50.190;2022-09-29T00:30:13;100210.66;;;4.99;34.51
54122;BME280;40029;58.708;50.190;2022-09-29T00:32:44;100211.50;;;4.96;34.76
54122;BME280;40029;58.708;50.190;2022-09-29T00:35:15;100202.03;;;4.98;35.05
54122;BME280;40029;58.708;50.190;2022-09-29T00:37:47;100179.84;;;4.74;34.90
54122;BME280;40029;58.708;50.190;2022-09-29T00:40:18;100180.66;;;4.80;35.55
54122;BME280;40029;58.708;50.190;2022-09-29T00:42:49;100203.81;;;4.93;35.41
54122;BME280;40029;58.708;50.190;2022-09-29T00:45:21;100196.00;;;4.99;35.49
54122;BME280;40029;58.708;50.190;2022-09-29T00:48:09;100192.59;;;4.96;35.35
54122;BME280;40029;58.708;50.190;2022-09-29T00:50:43;100187.41;;;4.96;35.44
54122;BME280;40029;58.708;50.190;2022-09-29T00:53:18;100195.22;;;4.93;35.73
54122;BME280;40029;58.708;50.190;2022-09-29T00:56:09;100178.84;;;4.92;36.07
54122;BME280;40029;58.708;50.190;2022-09-29T00:58:50;100110.38;;;4.48;36.15
54122;BME280;40029;58.708;50.190;2022-09-29T01:01:29;100184.88;;;4.91;35.86
54122;BME280;40029;58.708;50.190;2022-09-29T01:04:08;100184.88;;;4.93;35.74
54122;BME280;40029;58.708;50.190;2022-09-29T01:06:49;100178.00;;;4.90;35.71
54122;BME280;40029;58.708;50.190;2022-09-29T01:09:31;100168.59;;;4.83;36.42
54122;BME280;40029;58.708;50.190;2022-09-29T01:12:04;100167.72;;;4.89;36.17
54122;BME280;40029;58.708;50.190;2022-09-29T01:14:37;100163.38;;;4.91;36.63
54122;BME280;40029;58.708;50.190;2022-09-29T01:17:08;100164.31;;;4.81;37.06
54122;BME280;40029;58.708;50.190;2022-09-29T01:29:01;100163.56;;;4.68;38.24
54122;BME280;40029;58.708;50.190;2022-09-29T01:31:49;100162.66;;;4.73;37.70
54122;BME280;40029;58.708;50.190;2022-09-29T01:39:40;100154.94;;;4.72;39.13
54122;BME280;40029;58.708;50.190;2022-09-29T01:42:29;100142.97;;;4.60;40.20
54122;BME280;40029;58.708;50.190;2022-09-29T01:45:09;100153.16;;;4.77;38.95
54122;BME280;40029;58.708;50.190;2022-09-29T01:47:46;100143.66;;;4.82;38.94
54122;BME280;40029;58.708;50.190;2022-09-29T01:50:28;100153.09;;;4.83;40.29
54122;BME280;40029;58.708;50.190;2022-09-29T01:53:08;100152.28;;;4.78;39.79
54122;BME280;40029;58.708;50.190;2022-09-29T01:55:45;100132.56;;;4.72;39.71
54122;BME280;40029;58.708;50.190;2022-09-29T01:58:22;100148.84;;;4.81;39.89
54122;BME280;40029;58.708;50.190;2022-09-29T02:00:59;100163.41;;;4.89;39.65
54122;BME280;40029;58.708;50.190;2022-09-29T02:03:40;100107.59;;;4.71;39.96
54122;BME280;40029;58.708;50.190;2022-09-29T02:06:21;100140.09;;;4.95;40.62
54122;BME280;40029;58.708;50.190;2022-09-29T02:08:56;100140.25;;;4.79;40.58
54122;BME280;40029;58.708;50.190;2022-09-29T02:11:30;100134.22;;;4.78;40.44
54122;BME280;40029;58.708;50.190;2022-09-29T02:14:11;100142.81;;;4.80;41.22
54122;BME280;40029;58.708;50.190;2022-09-29T02:16:53;100114.59;;;4.60;41.47
54122;BME280;40029;58.708;50.190;2022-09-29T02:19:27;100142.84;;;4.77;41.21
54122;BME280;40029;58.708;50.190;2022-09-29T02:21:59;100126.53;;;4.73;42.00
54122;BME280;40029;58.708;50.190;2022-09-29T02:24:30;100114.56;;;4.63;41.66
54122;BME280;40029;58.708;50.190;2022-09-29T02:27:02;100137.63;;;4.82;41.80
54122;BME280;40029;58.708;50.190;2022-09-29T02:29:35;100141.06;;;4.82;42.17
54122;BME280;40029;58.708;50.190;2022-09-29T02:32:07;100134.16;;;4.84;42.35
54122;BME280;40029;58.708;50.190;2022-09-29T02:34:42;100138.50;;;4.81;42.53
54122;BME280;40029;58.708;50.190;2022-09-29T02:40:43;100134.16;;;4.84;42.94
54122;BME280;40029;58.708;50.190;2022-09-29T02:58:17;100136.03;;;4.68;43.44
54122;BME280;40029;58.708;50.190;2022-09-29T03:00:52;100137.75;;;4.69;43.07
54122;BME280;40029;58.708;50.190;2022-09-29T03:03:23;100137.72;;;4.72;43.73
54122;BME280;40029;58.708;50.190;2022-09-29T03:05:54;100141.13;;;4.74;43.07
54122;BME280;40029;58.708;50.190;2022-09-29T03:08:27;100064.97;;;4.28;43.44
54122;BME280;40029;58.708;50.190;2022-09-29T03:10:58;100145.38;;;4.82;44.03
54122;BME280;40029;58.708;50.190;2022-09-29T03:13:29;100069.19;;;4.33;43.67
54122;BME280;40029;58.708;50.190;2022-09-29T03:16:00;100151.38;;;4.85;43.43
54122;BME280;40029;58.708;50.190;2022-09-29T03:18:31;100145.38;;;4.82;43.93
54122;BME280;40029;58.708;50.190;2022-09-29T03:21:02;100141.13;;;4.74;44.00
54122;BME280;40029;58.708;50.190;2022-09-29T03:23:33;100145.34;;;4.83;43.42
54122;BME280;40029;58.708;50.190;2022-09-29T03:26:04;100069.25;;;4.30;43.79
54122;BME280;40029;58.708;50.190;2022-09-29T03:28:35;100132.56;;;4.71;44.00
54122;BME280;40029;58.708;50.190;2022-09-29T03:31:07;100146.25;;;4.81;43.82
54122;BME280;40029;58.708;50.190;2022-09-29T03:33:39;100135.00;;;4.86;44.10
54122;BME280;40029;58.708;50.190;2022-09-29T03:36:10;100130.69;;;4.87;43.86
54122;BME280;40029;58.708;50.190;2022-09-29T03:38:41;100122.97;;;4.87;44.38
54122;BME280;40029;58.708;50.190;2022-09-29T03:41:13;100138.38;;;4.97;44.10
54122;BME280;40029;58.708;50.190;2022-09-29T03:43:45;100132.44;;;4.86;44.00
54122;BME280;40029;58.708;50.190;2022-09-29T03:46:16;100125.59;;;4.82;44.35
54122;BME280;40029;58.708;50.190;2022-09-29T03:48:48;100131.59;;;4.83;44.23
54122;BME280;40029;58.708;50.190;2022-09-29T03:51:19;100118.69;;;4.83;44.12
54122;BME280;40029;58.708;50.190;2022-09-29T03:53:50;100128.09;;;4.88;44.10
54122;BME280;40029;58.708;50.190;2022-09-29T03:56:22;100122.94;;;4.90;44.07
54122;BME280;40029;58.708;50.190;2022-09-29T03:58:53;100123.81;;;4.84;44.72
54122;BME280;40029;58.708;50.190;2022-09-29T04:01:24;100127.25;;;4.89;44.76
54122;BME280;40029;58.708;50.190;2022-09-29T04:03:56;100132.38;;;4.94;44.58
54122;BME280;40029;58.708;50.190;2022-09-29T04:06:27;100128.91;;;4.95;44.76
54122;BME280;40029;58.708;50.190;2022-09-29T04:08:58;100138.25;;;5.05;44.58
54122;BME280;40029;58.708;50.190;2022-09-29T04:11:29;100137.50;;;4.98;44.86
54122;BME280;40029;58.708;50.190;2022-09-29T04:14:00;100145.16;;;5.08;44.41
54122;BME280;40029;58.708;50.190;2022-09-29T04:16:31;100137.41;;;5.05;44.79
54122;BME280;40029;58.708;50.190;2022-09-29T04:19:03;100135.63;;;5.10;44.32
54122;BME280;40029;58.708;50.190;2022-09-29T04:21:34;100138.28;;;5.07;44.48
54122;BME280;40029;58.708;50.190;2022-09-29T04:24:05;100129.69;;;5.06;44.81
54122;BME280;40029;58.708;50.190;2022-09-29T04:26:36;100120.22;;;5.04;44.74
54122;BME280;40029;58.708;50.190;2022-09-29T04:29:07;100137.34;;;5.12;44.86
54122;BME280;40029;58.708;50.190;2022-09-29T04:31:38;100134.75;;;5.14;44.75
54122;BME280;40029;58.708;50.190;2022-09-29T04:34:08;100141.59;;;5.18;45.13
54122;BME280;40029;58.708;50.190;2022-09-29T04:36:40;100127.94;;;5.05;44.83
54122;BME280;40029;58.708;50.190;2022-09-29T04:39:10;100139.97;;;5.08;45.15
54122;BME280;40029;58.708;50.190;2022-09-29T04:41:42;100142.59;;;5.06;45.47
54122;BME280;40029;58.708;50.190;2022-09-29T04:44:13;100140.81;;;5.10;45.84
54122;BME280;40029;58.708;50.190;2022-09-29T04:46:44;100130.47;;;5.11;45.08
54122;BME280;40029;58.708;50.190;2022-09-29T04:49:17;100144.25;;;5.12;45.46
54122;BME280;40029;58.708;50.190;2022-09-29T04:51:48;100134.69;;;5.20;45.30
54122;BME280;40029;58.708;50.190;2022-09-29T04:54:19;100140.75;;;5.16;45.27
54122;BME280;40029;58.708;50.190;2022-09-29T04:56:50;100138.09;;;5.22;45.26
54122;BME280;40029;58.708;50.190;2022-09-29T04:59:21;100138.09;;;5.23;45.64
54122;BME280;40029;58.708;50.190;2022-09-29T05:01:52;100104.66;;;5.08;45.53
54122;BME280;40029;58.708;50.190;2022-09-29T05:04:23;100129.47;;;5.24;45.58
54122;BME280;40029;58.708;50.190;2022-09-29T05:06:54;100133.78;;;5.27;45.59
54122;BME280;40029;58.708;50.190;2022-09-29T05:09:25;100124.28;;;5.26;45.88
54122;BME280;40029;58.708;50.190;2022-09-29T05:11:56;100078.03;;;5.03;45.69
54122;BME280;40029;58.708;50.190;2022-09-29T05:14:27;100110.50;;;5.29;45.19
54122;BME280;40029;58.708;50.190;2022-09-29T05:16:58;100123.31;;;5.36;45.32
54122;BME280;40029;58.708;50.190;2022-09-29T05:19:29;100109.50;;;5.39;45.43
54122;BME280;40029;58.708;50.190;2022-09-29T05:22:02;100113.84;;;5.37;45.42
54122;BME280;40029;58.708;50.190;2022-09-29T05:24:33;100116.53;;;5.26;45.39
54122;BME280;40029;58.708;50.190;2022-09-29T05:27:04;100115.53;;;5.38;45.00
54122;BME280;40029;58.708;50.190;2022-09-29T05:29:35;100113.03;;;5.33;45.52
54122;BME280;40029;58.708;50.190;2022-09-29T05:32:06;100119.00;;;5.40;45.87
54122;BME280;40029;58.708;50.190;2022-09-29T05:34:37;100112.03;;;5.45;45.35
54122;BME280;40029;58.708;50.190;2022-09-29T05:37:08;100110.41;;;5.35;45.65
54122;BME280;40029;58.708;50.190;2022-09-29T05:39:39;100123.28;;;5.41;45.22
54122;BME280;40029;58.708;50.190;2022-09-29T05:42:11;100118.25;;;5.29;45.63
54122;BME280;40029;58.708;50.190;2022-09-29T05:44:42;100123.38;;;5.32;46.32
54122;BME280;40029;58.708;50.190;2022-09-29T05:47:13;100132.81;;;5.34;45.89
54122;BME280;40029;58.708;50.190;2022-09-29T05:49:44;100131.13;;;5.32;46.40
54122;BME280;40029;58.708;50.190;2022-09-29T05:52:15;100088.31;;;5.11;46.49
54122;BME280;40029;58.708;50.190;2022-09-29T05:54:46;100125.84;;;5.42;45.91
54122;BME280;40029;58.708;50.190;2022-09-29T05:57:20;100127.66;;;5.36;46.63
54122;BME280;40029;58.708;50.190;2022-09-29T05:59:51;100129.38;;;5.34;46.19
54122;BME280;40029;58.708;50.190;2022-09-29T06:02:22;100137.13;;;5.34;46.38
54122;BME280;40029;58.708;50.190;2022-09-29T06:04:53;100141.34;;;5.42;46.40
54122;BME280;40029;58.708;50.190;2022-09-29T06:07:24;100145.59;;;5.48;46.24
54122;BME280;40029;58.708;50.190;2022-09-29T06:09:55;100122.41;;;5.39;46.85
54122;BME280;40029;58.708;50.190;2022-09-29T06:12:26;100151.59;;;5.50;46.84
54122;BME280;40029;58.708;50.190;2022-09-29T06:14:57;100111.56;;;5.08;46.87
54122;BME280;40029;58.708;50.190;2022-09-29T06:17:28;100153.38;;;5.45;47.20
54122;BME280;40029;58.708;50.190;2022-09-29T06:19:59;100150.84;;;5.40;47.40
54122;BME280;40029;58.708;50.190;2022-09-29T06:22:30;100148.22;;;5.42;47.28
54122;BME280;40029;58.708;50.190;2022-09-29T06:25:01;100162.94;;;5.37;47.26
54122;BME280;40029;58.708;50.190;2022-09-29T06:27:33;100097.88;;;4.99;47.47
54122;BME280;40029;58.708;50.190;2022-09-29T06:30:05;100163.72;;;5.43;47.50
54122;BME280;40029;58.708;50.190;2022-09-29T06:32:36;100177.50;;;5.45;47.59
54122;BME280;40029;58.708;50.190;2022-09-29T06:35:07;100136.31;;;5.32;47.33
54122;BME280;40029;58.708;50.190;2022-09-29T06:37:57;100179.19;;;5.48;47.71
54122;BME280;40029;58.708;50.190;2022-09-29T06:40:29;100182.69;;;5.44;47.59
54122;BME280;40029;58.708;50.190;2022-09-29T06:42:59;100180.91;;;5.46;47.60
54122;BME280;40029;58.708;50.190;2022-09-29T06:45:31;100183.50;;;5.46;47.96
54122;BME280;40029;58.708;50.190;2022-09-29T06:48:02;100188.59;;;5.52;47.67
54122;BME280;40029;58.708;50.190;2022-09-29T06:50:34;100181.78;;;5.48;47.69
54122;BME280;40029;58.708;50.190;2022-09-29T06:53:05;100180.91;;;5.46;48.45
54122;BME280;40029;58.708;50.190;2022-09-29T06:55:36;100177.47;;;5.48;48.06
54122;BME280;40029;58.708;50.190;2022-09-29T06:58:08;100150.13;;;5.24;48.29
54122;BME280;40029;58.708;50.190;2022-09-29T07:00:40;100169.84;;;5.36;48.50
54122;BME280;40029;58.708;50.190;2022-09-29T07:03:11;100162.91;;;5.38;48.10
54122;BME280;40029;58.708;50.190;2022-09-29T07:05:42;100175.06;;;5.30;48.60
54122;BME280;40029;58.708;50.190;2022-09-29T07:08:13;100189.69;;;5.33;49.36
54122;BME280;40029;58.708;50.190;2022-09-29T07:10:45;100181.84;;;5.40;48.78
54122;BME280;40029;58.708;50.190;2022-09-29T07:13:16;100197.34;;;5.42;49.15
54122;BME280;40029;58.708;50.190;2022-09-29T07:15:47;100186.09;;;5.46;48.71
54122;BME280;40029;58.708;50.190;2022-09-29T07:18:19;100189.53;;;5.48;49.13
54122;BME280;40029;58.708;50.190;2022-09-29T07:20:50;100181.03;;;5.37;49.12
54122;BME280;40029;58.708;50.190;2022-09-29T07:23:21;100190.47;;;5.38;49.44
54122;BME280;40029;58.708;50.190;2022-09-29T07:25:52;100189.44;;;5.54;48.84
54122;BME280;40029;58.708;50.190;2022-09-29T07:28:23;100203.34;;;5.44;48.81
54122;BME280;40029;58.708;50.190;2022-09-29T07:31:02;100189.47;;;5.53;49.16
54122;BME280;40029;58.708;50.190;2022-09-29T07:33:33;100180.75;;;5.60;48.80
54122;BME280;40029;58.708;50.190;2022-09-29T07:36:04;100186.88;;;5.54;49.18
54122;BME280;40029;58.708;50.190;2022-09-29T07:38:36;100184.28;;;5.54;50.00
54122;BME280;40029;58.708;50.190;2022-09-29T07:41:09;100183.34;;;5.60;49.42
54122;BME280;40029;58.708;50.190;2022-09-29T07:43:40;100182.59;;;5.53;49.36
54122;BME280;40029;58.708;50.190;2022-09-29T07:46:11;100180.84;;;5.54;49.98
54122;BME280;40029;58.708;50.190;2022-09-29T07:48:42;100173.13;;;5.50;49.21
54122;BME280;40029;58.708;50.190;2022-09-29T07:51:16;100168.84;;;5.49;50.10
54122;BME280;40029;58.708;50.190;2022-09-29T07:53:48;100180.91;;;5.47;50.11
54122;BME280;40029;58.708;50.190;2022-09-29T07:56:21;100181.75;;;5.49;50.21
54122;BME280;40029;58.708;50.190;2022-09-29T07:58:52;100185.13;;;5.58;50.31
54122;BME280;40029;58.708;50.190;2022-09-29T08:01:23;100194.53;;;5.60;49.62
54122;BME280;40029;58.708;50.190;2022-09-29T08:03:54;100179.88;;;5.65;50.42
54122;BME280;40029;58.708;50.190;2022-09-29T08:06:26;100177.28;;;5.65;49.81
54122;BME280;40029;58.708;50.190;2022-09-29T08:08:59;100176.44;;;5.62;49.91
54122;BME280;40029;58.708;50.190;2022-09-29T08:11:36;100191.97;;;5.62;50.35
54122;BME280;40029;58.708;50.190;2022-09-29T08:14:09;100191.97;;;5.62;50.38
54122;BME280;40029;58.708;50.190;2022-09-29T08:16:40;100175.53;;;5.64;50.27
54122;BME280;40029;58.708;50.190;2022-09-29T08:19:11;100173.00;;;5.63;50.25
54122;BME280;40029;58.708;50.190;2022-09-29T08:21:42;100172.97;;;5.66;49.92
54122;BME280;40029;58.708;50.190;2022-09-29T08:24:13;100194.41;;;5.72;50.20
54122;BME280;40029;58.708;50.190;2022-09-29T08:26:44;100184.03;;;5.75;50.63
54122;BME280;40029;58.708;50.190;2022-09-29T08:29:15;100179.69;;;5.79;49.96
54122;BME280;40029;58.708;50.190;2022-09-29T08:31:46;100177.09;;;5.81;49.71
54122;BME280;40029;58.708;50.190;2022-09-29T08:34:18;100175.28;;;5.86;49.60
54122;BME280;40029;58.708;50.190;2022-09-29T08:36:50;100178.78;;;5.83;49.74
54122;BME280;40029;58.708;50.190;2022-09-29T08:39:21;100181.28;;;5.91;50.03
54122;BME280;40029;58.708;50.190;2022-09-29T08:44:59;100177.84;;;5.92;49.74
54122;BME280;40029;58.708;50.190;2022-09-29T08:47:35;100169.28;;;5.87;50.02
54122;BME280;40029;58.708;50.190;2022-09-29T08:50:24;100178.53;;;6.05;49.91
54122;BME280;40029;58.708;50.190;2022-09-29T08:53:08;100175.88;;;6.11;49.50
54122;BME280;40029;58.708;50.190;2022-09-29T08:55:49;100183.69;;;6.06;49.94
54122;BME280;40029;58.708;50.190;2022-09-29T08:58:22;100172.53;;;6.04;50.01
54122;BME280;40029;58.708;50.190;2022-09-29T09:04:03;100179.22;;;6.19;49.90
54122;BME280;40029;58.708;50.190;2022-09-29T09:09:33;100173.13;;;6.24;49.85
54122;BME280;40029;58.708;50.190;2022-09-29T09:15:20;100176.63;;;6.20;49.37
54122;BME280;40029;58.708;50.190;2022-09-29T09:20:34;100174.81;;;6.25;49.14
54122;BME280;40029;58.708;50.190;2022-09-29T09:26:03;100186.09;;;6.21;49.66
54122;BME280;40029;58.708;50.190;2022-09-29T09:28:39;100196.28;;;6.34;49.48
54122;BME280;40029;58.708;50.190;2022-09-29T09:31:27;100180.84;;;6.26;49.85
54122;BME280;40029;58.708;50.190;2022-09-29T09:36:48;100202.44;;;6.23;49.82
54122;BME280;40029;58.708;50.190;2022-09-29T09:42:24;100204.06;;;6.31;49.24
54122;BME280;40029;58.708;50.190;2022-09-29T09:45:01;100209.16;;;6.37;49.10
54122;BME280;40029;58.708;50.190;2022-09-29T09:47:39;100198.81;;;6.37;49.71
54122;BME280;40029;58.708;50.190;2022-09-29T09:50:15;100200.69;;;6.25;49.78
54122;BME280;40029;58.708;50.190;2022-09-29T09:52:50;100206.53;;;6.40;49.69
54122;BME280;40029;58.708;50.190;2022-09-29T09:55:24;100147.41;;;6.12;49.27
54122;BME280;40029;58.708;50.190;2022-09-29T10:00:43;100210.78;;;6.44;49.21
54122;BME280;40029;58.708;50.190;2022-09-29T10:03:15;100210.81;;;6.41;49.34
54122;BME280;40029;58.708;50.190;2022-09-29T10:05:47;100216.88;;;6.40;49.25
54122;BME280;40029;58.708;50.190;2022-09-29T10:08:30;100222.78;;;6.49;48.88
54122;BME280;40029;58.708;50.190;2022-09-29T10:13:45;100208.25;;;6.39;49.31
54122;BME280;40029;58.708;50.190;2022-09-29T10:16:25;100216.81;;;6.46;49.64
54122;BME280;40029;58.708;50.190;2022-09-29T10:18:58;100222.84;;;6.45;49.29
54122;BME280;40029;58.708;50.190;2022-09-29T10:21:43;100228.88;;;6.47;49.47
54122;BME280;40029;58.708;50.190;2022-09-29T10:24:21;100238.38;;;6.46;49.01
54122;BME280;40029;58.708;50.190;2022-09-29T10:26:54;100242.69;;;6.44;49.22
54122;BME280;40029;58.708;50.190;2022-09-29T10:29:32;100240.22;;;6.38;49.81
54122;BME280;40029;58.708;50.190;2022-09-29T10:32:22;100246.25;;;6.36;50.03
54122;BME280;40029;58.708;50.190;2022-09-29T10:35:23;100243.72;;;6.34;50.33
54122;BME280;40029;58.708;50.190;2022-09-29T10:38:02;100242.69;;;6.46;50.20
54122;BME280;40029;58.708;50.190;2022-09-29T10:40:35;100216.22;;;6.25;49.93
54122;BME280;40029;58.708;50.190;2022-09-29T10:43:47;100246.81;;;6.59;49.90
54122;BME280;40029;58.708;50.190;2022-09-29T10:49:27;100263.97;;;6.68;49.57
54122;BME280;40029;58.708;50.190;2022-09-29T10:52:13;100259.72;;;6.61;49.47
54122;BME280;40029;58.708;50.190;2022-09-29T10:54:56;100262.22;;;6.67;49.22
54122;BME280;40029;58.708;50.190;2022-09-29T10:57:30;100225.50;;;6.40;49.57
54122;BME280;40029;58.708;50.190;2022-09-29T11:00:02;100260.56;;;6.64;49.44
54122;BME280;40029;58.708;50.190;2022-09-29T11:02:38;100268.28;;;6.67;49.65
54122;BME280;40029;58.708;50.190;2022-09-29T11:05:18;100270.81;;;6.70;49.81
54122;BME280;40029;58.708;50.190;2022-09-29T11:07:52;100264.81;;;6.68;49.80
54122;BME280;40029;58.708;50.190;2022-09-29T11:16:11;100281.09;;;6.76;49.96
54122;BME280;40029;58.708;50.190;2022-09-29T11:18:48;100276.78;;;6.77;49.88
54122;BME280;40029;58.708;50.190;2022-09-29T11:29:37;100282.56;;;6.94;49.31
54122;BME280;40029;58.708;50.190;2022-09-29T11:38:16;100283.44;;;6.92;49.60
54122;BME280;40029;58.708;50.190;2022-09-29T11:43:49;100277.38;;;6.94;49.79
54122;BME280;40029;58.708;50.190;2022-09-29T11:50:55;100274.91;;;6.88;49.94
54122;BME280;40029;58.708;50.190;2022-09-29T12:04:37;100280.84;;;6.92;50.54
54122;BME280;40029;58.708;50.190;2022-09-29T12:16:13;100270.38;;;6.99;50.39
54122;BME280;40029;58.708;50.190;2022-09-29T12:18:52;100284.16;;;7.03;50.38
54122;BME280;40029;58.708;50.190;2022-09-29T12:21:33;100282.41;;;7.05;50.59
54122;BME280;40029;58.708;50.190;2022-09-29T12:24:13;100249.88;;;6.86;50.15
54122;BME280;40029;58.708;50.190;2022-09-29T12:26:47;100288.44;;;7.06;50.19
54122;BME280;40029;58.708;50.190;2022-09-29T12:29:30;100283.97;;;7.15;50.39
54122;BME280;40029;58.708;50.190;2022-09-29T12:32:31;100288.25;;;7.18;50.43
54122;BME280;40029;58.708;50.190;2022-09-29T12:43:53;100287.25;;;7.26;50.72
54122;BME280;40029;58.708;50.190;2022-09-29T12:46:35;100289.00;;;7.24;50.77
54122;BME280;40029;58.708;50.190;2022-09-29T12:51:49;100284.66;;;7.25;50.63
54122;BME280;40029;58.708;50.190;2022-09-29T12:59:40;100291.56;;;7.28;50.79
54122;BME280;40029;58.708;50.190;2022-09-29T13:13:58;100295.06;;;7.23;51.24
54122;BME280;40029;58.708;50.190;2022-09-29T13:16:55;100289.13;;;7.18;51.12
54122;BME280;40029;58.708;50.190;2022-09-29T13:25:48;100298.31;;;7.35;50.88
54122;BME280;40029;58.708;50.190;2022-09-29T13:28:37;100302.66;;;7.36;51.10
54122;BME280;40029;58.708;50.190;2022-09-29T13:31:14;100267.53;;;7.16;51.10
54122;BME280;40029;58.708;50.190;2022-09-29T13:33:53;100300.19;;;7.28;51.13
54122;BME280;40029;58.708;50.190;2022-09-29T13:36:30;100306.94;;;7.37;50.82
54122;BME280;40029;58.708;50.190;2022-09-29T13:39:20;100301.81;;;7.34;51.45
54122;BME280;40029;58.708;50.190;2022-09-29T13:41:53;100307.72;;;7.43;50.97
54122;BME280;40029;58.708;50.190;2022-09-29T13:44:28;100299.13;;;7.38;50.89
54122;BME280;40029;58.708;50.190;2022-09-29T13:47:32;100311.06;;;7.50;51.14
54122;BME280;40029;58.708;50.190;2022-09-29T13:58:34;100316.22;;;7.50;50.91
54122;BME280;40029;58.708;50.190;2022-09-29T14:01:07;100294.81;;;7.40;50.27
54122;BME280;40029;58.708;50.190;2022-09-29T14:03:43;100304.97;;;7.53;50.49
54122;BME280;40029;58.708;50.190;2022-09-29T14:09:05;100312.66;;;7.57;51.17
54122;BME280;40029;58.708;50.190;2022-09-29T14:11:40;100316.19;;;7.53;50.81
54122;BME280;40029;58.708;50.190;2022-09-29T14:14:22;100316.94;;;7.60;50.88
54122;BME280;40029;58.708;50.190;2022-09-29T14:28:39;100329.25;;;7.47;51.39
54122;BME280;40029;58.708;50.190;2022-09-29T14:30:51;100334.53;;;7.41;51.47
54122;BME280;40029;58.708;50.190;2022-09-29T14:33:29;100333.56;;;7.46;51.41
54122;BME280;40029;58.708;50.190;2022-09-29T14:36:10;100337.78;;;7.54;51.34
54122;BME280;40029;58.708;50.190;2022-09-29T14:38:46;100347.19;;;7.59;51.18
54122;BME280;40029;58.708;50.190;2022-09-29T14:41:27;100348.09;;;7.58;51.26
54122;BME280;40029;58.708;50.190;2022-09-29T14:44:15;100354.13;;;7.59;51.31
54122;BME280;40029;58.708;50.190;2022-09-29T14:51:06;100362.72;;;7.62;51.55
54122;BME280;40029;58.708;50.190;2022-09-29T14:56:34;100355.09;;;7.53;51.68
54122;BME280;40029;58.708;50.190;2022-09-29T14:59:46;100353.22;;;7.60;51.69
54122;BME280;40029;58.708;50.190;2022-09-29T15:02:24;100363.69;;;7.57;51.71
54122;BME280;40029;58.708;50.190;2022-09-29T15:04:58;100366.34;;;7.52;51.32
54122;BME280;40029;58.708;50.190;2022-09-29T15:07:29;100362.88;;;7.53;51.52
54122;BME280;40029;58.708;50.190;2022-09-29T15:10:00;100363.59;;;7.60;51.31
54122;BME280;40029;58.708;50.190;2022-09-29T15:12:34;100352.56;;;7.47;51.59
54122;BME280;40029;58.708;50.190;2022-09-29T15:15:29;100368.13;;;7.48;51.71
54122;BME280;40029;58.708;50.190;2022-09-29T15:18:31;100380.81;;;7.64;52.08
54122;BME280;40029;58.708;50.190;2022-09-29T15:21:09;100371.47;;;7.55;51.94
54122;BME280;40029;58.708;50.190;2022-09-29T15:26:30;100372.97;;;7.68;50.96
54122;BME280;40029;58.708;50.190;2022-09-29T15:29:05;100376.50;;;7.66;51.12
54122;BME280;40029;58.708;50.190;2022-09-29T15:31:37;100379.09;;;7.66;50.85
54122;BME280;40029;58.708;50.190;2022-09-29T15:34:19;100377.34;;;7.66;51.08
54122;BME280;40029;58.708;50.190;2022-09-29T15:36:53;100368.88;;;7.57;51.02
54122;BME280;40029;58.708;50.190;2022-09-29T15:42:11;100370.44;;;7.64;51.51
54122;BME280;40029;58.708;50.190;2022-09-29T15:45:31;100366.13;;;7.64;51.18
54122;BME280;40029;58.708;50.190;2022-09-29T15:47:39;100372.22;;;7.60;51.27
54122;BME280;40029;58.708;50.190;2022-09-29T15:50:24;100384.34;;;7.61;51.54
54122;BME280;40029;58.708;50.190;2022-09-29T15:52:56;100382.84;;;7.46;51.66
54122;BME280;40029;58.708;50.190;2022-09-29T15:55:31;100382.78;;;7.49;51.67
54122;BME280;40029;58.708;50.190;2022-09-29T16:00:58;100381.84;;;7.55;51.71
54122;BME280;40029;58.708;50.190;2022-09-29T16:03:41;100386.09;;;7.61;51.23
54122;BME280;40029;58.708;50.190;2022-09-29T16:06:30;100391.19;;;7.65;51.02
54122;BME280;40029;58.708;50.190;2022-09-29T16:09:16;100388.56;;;7.67;51.15
54122;BME280;40029;58.708;50.190;2022-09-29T16:11:48;100392.00;;;7.67;51.29
54122;BME280;40029;58.708;50.190;2022-09-29T16:14:22;100388.78;;;7.53;51.25
54122;BME280;40029;58.708;50.190;2022-09-29T16:16:57;100398.31;;;7.51;51.23
54122;BME280;40029;58.708;50.190;2022-09-29T16:19:30;100393.94;;;7.56;51.18
54122;BME280;40029;58.708;50.190;2022-09-29T16:22:03;100405.16;;;7.55;51.32
54122;BME280;40029;58.708;50.190;2022-09-29T16:24:50;100402.50;;;7.61;51.68
54122;BME280;40029;58.708;50.190;2022-09-29T16:27:49;100403.34;;;7.62;51.71
54122;BME280;40029;58.708;50.190;2022-09-29T16:30:36;100400.69;;;7.66;51.30
54122;BME280;40029;58.708;50.190;2022-09-29T16:33:19;100409.38;;;7.62;51.45
54122;BME280;40029;58.708;50.190;2022-09-29T16:38:39;100416.41;;;7.57;51.47
54122;BME280;40029;58.708;50.190;2022-09-29T16:43:50;100412.03;;;7.61;51.46